Glencoe, Illinois
Current Conditions -  °F | °C
As of 8:26 AM on Sunday 25 Jan 2015 (Local Time) from KPWK Reporting Station
Light Snow Light Snow  
Wind Chill: 22°   Ceiling: 700
Heat Index: 31°   Visibility: 1mi
Dew Point: 29°   Wind: 12mph
Humidity: 92%   Direction: 30°NNE
Pressure: 29.79"   Gusts: 25mph
Location:  42.13°N, 87.76°W
Report Text: KPWK 251426Z 03010G22KT 1SM -SN BR OVC007 M01/M02 A2979 RMK AO2 P0000 T10061017
Loading
Personal Weather Stations






























Interactive Weather Map New forecast layout! Learn more

10-Day Weather Forecast

Advertisements
Track Severe Weather on mobile